Time;durP1;ratioP1;P1;durP2;ratioP2;P2;SDS_P1;SDS_P2;PMS_P1;PMS_P2;Temp;Humidity;BMP_temperature;BMP_pressure;BME280_temperature;BME280_humidity;BME280_pressure;Samples;Min_cycle;Max_cycle;Signal;HPM_P1;HPM_P2
2023/04/29 00:01:24;;;;;;;37.03;29.10;;;;;;;11.54;80.46;101169.75;7393780;19;20528;-70
2023/04/29 00:03:52;;;;;;;33.45;28.58;;;;;;;11.57;80.51;101177.50;7393868;19;20039;-70
2023/04/29 00:06:20;;;;;;;31.27;26.60;;;;;;;11.61;80.14;101178.13;7395624;19;20024;-72
2023/04/29 00:08:47;;;;;;;32.60;27.30;;;;;;;11.64;79.80;101176.09;7395039;19;20025;-71
2023/04/29 00:11:15;;;;;;;29.10;25.48;;;;;;;11.69;79.92;101175.78;7392668;19;20598;-71
2023/04/29 00:13:42;;;;;;;30.27;25.35;;;;;;;11.65;79.93;101182.25;7397867;19;20018;-70
2023/04/29 00:16:09;;;;;;;30.90;25.95;;;;;;;11.64;79.76;101178.75;7394593;19;20137;-70
2023/04/29 00:18:36;;;;;;;31.02;25.85;;;;;;;11.62;79.75;101187.78;7393746;19;20018;-72
2023/04/29 00:21:07;;;;;;;27.75;23.67;;;;;;;11.61;79.90;101184.28;7392047;19;20027;-70
2023/04/29 00:23:34;;;;;;;29.83;26.05;;;;;;;11.61;79.75;101189.59;7391864;19;20018;-69
2023/04/29 00:26:01;;;;;;;28.55;23.92;;;;;;;11.61;79.79;101194.03;7394249;19;20433;-70
2023/04/29 00:28:28;;;;;;;29.08;23.58;;;;;;;11.63;79.51;101203.56;7394803;19;20010;-70
2023/04/29 00:30:55;;;;;;;26.67;22.63;;;;;;;11.62;79.54;101196.56;7394453;19;20022;-70
2023/04/29 00:33:23;;;;;;;27.08;22.30;;;;;;;11.55;79.97;101207.72;7394253;19;20019;-71
2023/04/29 00:35:50;;;;;;;27.35;21.65;;;;;;;11.59;79.82;101211.84;7394280;19;20041;-71
2023/04/29 00:38:17;;;;;;;26.00;21.55;;;;;;;11.63;79.49;101214.19;7393362;19;20040;-70
2023/04/29 00:40:44;;;;;;;28.00;22.45;;;;;;;11.59;79.36;101220.66;7392868;19;20015;-70
2023/04/29 00:43:12;;;;;;;26.73;22.25;;;;;;;11.55;79.57;101215.69;7393613;19;20006;-70
2023/04/29 00:45:39;;;;;;;27.33;22.05;;;;;;;11.50;79.92;101218.66;7394087;19;20389;-70
2023/04/29 00:48:06;;;;;;;26.10;22.40;;;;;;;11.55;79.57;101221.00;7394642;19;20027;-70
2023/04/29 00:50:35;;;;;;;28.98;23.63;;;;;;;11.59;79.70;101223.31;7394045;19;20089;-70
2023/04/29 00:53:03;;;;;;;26.40;22.17;;;;;;;11.53;79.57;101226.41;7392899;19;20106;-69
2023/04/29 00:55:32;;;;;;;24.58;21.58;;;;;;;11.49;79.76;101237.34;7394109;19;20114;-69
2023/04/29 00:58:01;;;;;;;23.95;20.70;;;;;;;11.51;79.69;101238.06;7391861;19;20014;-71
2023/04/29 01:00:29;;;;;;;27.60;21.42;;;;;;;11.49;79.78;101242.66;7393230;19;20473;-72
2023/04/29 01:02:58;;;;;;;26.55;21.50;;;;;;;11.45;79.79;101242.03;7392418;19;20129;-70
2023/04/29 01:05:25;;;;;;;25.63;21.63;;;;;;;11.45;79.54;101247.31;7392006;19;20018;-69
2023/04/29 01:08:05;;;;;;;25.15;20.08;;;;;;;11.43;79.80;101258.03;7392013;19;20047;-70
2023/04/29 01:10:40;;;;;;;24.20;19.17;;;;;;;11.50;79.50;101257.59;7394304;19;20010;-70
2023/04/29 01:13:18;;;;;;;22.65;18.83;;;;;;;11.52;79.09;101253.03;7395934;19;20051;-71
2023/04/29 01:16:22;;;;;;;22.55;19.08;;;;;;;11.45;79.07;101250.81;7391387;19;20027;-71
2023/04/29 01:18:54;;;;;;;25.23;19.25;;;;;;;11.39;79.58;101259.19;7388835;19;20022;-70
2023/04/29 01:21:21;;;;;;;21.25;18.70;;;;;;;11.40;79.40;101255.56;7390492;19;20023;-70
2023/04/29 01:23:54;;;;;;;23.50;18.95;;;;;;;11.46;79.07;101259.63;7391118;19;20536;-70
2023/04/29 01:26:22;;;;;;;25.77;20.27;;;;;;;11.39;79.19;101263.66;7392567;19;20018;-70
2023/04/29 01:28:58;;;;;;;25.35;19.75;;;;;;;11.37;79.14;101262.88;7391821;19;20022;-71
2023/04/29 01:31:45;;;;;;;25.52;19.70;;;;;;;11.31;79.17;101276.59;7392688;19;20035;-70
2023/04/29 01:34:46;;;;;;;23.38;18.80;;;;;;;11.35;78.97;101275.41;7388620;19;20022;-70
2023/04/29 01:37:21;;;;;;;21.55;18.20;;;;;;;11.29;79.17;101271.38;7393026;19;20368;-70
2023/04/29 01:39:55;;;;;;;23.48;18.38;;;;;;;11.29;79.01;101271.38;7391899;19;20039;-72
2023/04/29 01:42:35;;;;;;;23.15;18.65;;;;;;;11.25;78.95;101277.84;7392642;19;20361;-68
2023/04/29 01:45:07;;;;;;;21.70;18.02;;;;;;;11.28;79.15;101282.94;7391760;19;20354;-67
2023/04/29 01:47:35;;;;;;;22.23;17.35;;;;;;;11.30;78.60;101290.81;7392364;19;20480;-67
2023/04/29 01:50:03;;;;;;;21.55;17.67;;;;;;;11.34;78.30;101289.63;7391553;19;20018;-68
2023/04/29 01:52:30;;;;;;;22.35;16.40;;;;;;;11.31;78.50;101295.16;7390601;19;20019;-68
2023/04/29 01:54:57;;;;;;;24.17;18.00;;;;;;;11.35;78.09;101302.78;7391317;19;20018;-69
2023/04/29 01:57:23;;;;;;;22.45;16.90;;;;;;;11.26;78.23;101303.41;7391948;19;20018;-69
2023/04/29 01:59:51;;;;;;;21.58;16.45;;;;;;;11.25;78.50;101303.50;7389770;19;20026;-68
2023/04/29 02:02:22;;;;;;;21.85;15.73;;;;;;;11.22;78.25;101310.72;7390492;19;20010;-67
2023/04/29 02:04:49;;;;;;;19.50;15.77;;;;;;;11.20;78.42;101315.28;7391563;19;20020;-67
2023/04/29 02:07:16;;;;;;;20.95;15.48;;;;;;;11.16;78.31;101324.38;7391812;19;20066;-68
2023/04/29 02:09:43;;;;;;;21.90;16.00;;;;;;;11.19;78.31;101328.66;7391374;19;20022;-68
2023/04/29 02:12:10;;;;;;;21.00;15.70;;;;;;;11.19;78.29;101329.50;7391369;19;20022;-68
2023/04/29 02:14:37;;;;;;;21.38;15.88;;;;;;;11.19;78.28;101332.13;7391825;19;20035;-70
2023/04/29 02:17:04;;;;;;;21.65;14.95;;;;;;;11.18;77.99;101335.75;7391138;19;20018;-70
2023/04/29 02:19:31;;;;;;;19.65;15.13;;;;;;;11.17;78.07;101341.97;7390815;19;20014;-69
2023/04/29 02:21:58;;;;;;;19.65;15.88;;;;;;;11.10;78.40;101345.16;7390057;19;20025;-72
2023/04/29 02:24:25;;;;;;;20.70;16.13;;;;;;;11.06;78.39;101341.00;7389728;19;20040;-70
2023/04/29 02:26:52;;;;;;;23.45;15.82;;;;;;;11.05;78.46;101355.22;7390856;19;20103;-69
2023/04/29 02:29:20;;;;;;;19.40;14.95;;;;;;;10.99;78.06;101356.47;7391239;19;20332;-70
2023/04/29 02:31:47;;;;;;;19.52;14.10;;;;;;;10.96;78.08;101356.69;7391000;19;20014;-70
2023/04/29 02:34:14;;;;;;;20.20;14.82;;;;;;;10.95;77.84;101360.25;7389367;19;20078;-70
2023/04/29 02:36:41;;;;;;;17.70;13.80;;;;;;;11.02;77.69;101361.56;7391284;19;20035;-70
2023/04/29 02:39:08;;;;;;;17.13;14.05;;;;;;;11.01;77.57;101366.97;7389915;19;20035;-70
2023/04/29 02:41:35;;;;;;;18.63;14.23;;;;;;;11.02;77.36;101373.97;7389924;19;20055;-70
2023/04/29 02:44:02;;;;;;;19.73;13.68;;;;;;;10.94;77.74;101370.00;7390759;19;20036;-71
2023/04/29 02:46:31;;;;;;;17.60;13.40;;;;;;;10.97;77.88;101371.63;7403491;19;20032;-70
2023/04/29 02:48:58;;;;;;;19.55;14.77;;;;;;;11.05;77.59;101377.25;7404298;19;20041;-69
2023/04/29 02:51:25;;;;;;;18.38;13.95;;;;;;;11.06;77.49;101378.94;7404804;19;20520;-70
2023/04/29 02:53:52;;;;;;;19.50;13.77;;;;;;;11.05;77.22;101390.50;7403135;19;20038;-72
2023/04/29 02:56:20;;;;;;;16.10;12.60;;;;;;;10.94;77.08;101385.06;7401470;19;20039;-70
2023/04/29 02:58:47;;;;;;;18.92;13.77;;;;;;;10.96;77.44;101385.81;7404197;19;20027;-71
2023/04/29 03:01:14;;;;;;;19.38;14.07;;;;;;;10.98;76.94;101398.00;7403813;19;20010;-71
2023/04/29 03:03:41;;;;;;;17.52;13.40;;;;;;;10.95;77.19;101397.34;7403328;19;20335;-72
2023/04/29 03:06:08;;;;;;;18.50;13.30;;;;;;;10.89;77.42;101392.47;7404240;19;20023;-70
2023/04/29 03:08:35;;;;;;;18.63;13.13;;;;;;;10.98;77.03;101399.81;7402579;19;20493;-71
2023/04/29 03:11:03;;;;;;;18.02;13.20;;;;;;;10.98;77.16;101402.47;7403496;19;20019;-70
2023/04/29 03:13:30;;;;;;;17.98;13.43;;;;;;;11.02;76.78;101409.25;7402528;19;20018;-71
2023/04/29 03:15:59;;;;;;;19.13;13.07;;;;;;;10.91;77.01;101404.69;7403356;19;20018;-71
2023/04/29 03:18:26;;;;;;;20.27;13.82;;;;;;;10.86;77.24;101404.09;7404061;19;20015;-72
2023/04/29 03:20:53;;;;;;;19.45;13.43;;;;;;;10.85;77.74;101415.66;7402398;19;20021;-71
2023/04/29 03:23:21;;;;;;;16.70;12.73;;;;;;;10.88;77.68;101415.47;7401862;19;20090;-71
2023/04/29 03:25:48;;;;;;;19.42;13.93;;;;;;;10.91;77.48;101417.94;7398252;19;20023;-72
2023/04/29 03:28:15;;;;;;;19.83;13.90;;;;;;;11.00;77.19;101421.78;7401358;19;20014;-71
2023/04/29 03:30:42;;;;;;;20.17;14.52;;;;;;;10.91;77.21;101415.28;7399922;19;20018;-72
2023/04/29 03:33:09;;;;;;;20.15;13.23;;;;;;;10.88;77.73;101423.41;7401158;19;20010;-70
2023/04/29 03:35:36;;;;;;;19.60;12.93;;;;;;;10.92;77.54;101421.44;7403248;19;20018;-71
2023/04/29 03:38:03;;;;;;;17.67;13.23;;;;;;;10.96;77.17;101425.56;7402817;19;20010;-71
2023/04/29 03:40:30;;;;;;;17.77;13.70;;;;;;;10.94;77.00;101428.31;7402902;19;20022;-71
2023/04/29 03:42:57;;;;;;;17.60;12.95;;;;;;;10.90;77.12;101428.59;7401334;19;20026;-71
2023/04/29 03:45:24;;;;;;;21.83;14.23;;;;;;;10.92;77.32;101427.56;7403490;19;20021;-71
2023/04/29 03:47:52;;;;;;;19.45;13.32;;;;;;;10.89;76.96;101430.41;7403415;19;20487;-71
2023/04/29 03:50:19;;;;;;;17.80;12.98;;;;;;;10.83;77.08;101432.59;7402862;19;20025;-71
2023/04/29 03:52:46;;;;;;;22.90;14.48;;;;;;;10.78;77.68;101440.00;7400260;19;20626;-71
2023/04/29 03:55:13;;;;;;;21.40;14.52;;;;;;;10.75;77.41;101451.63;7400318;19;20022;-70
2023/04/29 03:57:40;;;;;;;19.05;13.88;;;;;;;10.71;77.88;101452.78;7394558;19;20026;-70
2023/04/29 04:00:08;;;;;;;20.50;13.98;;;;;;;10.80;77.30;101460.16;7395507;19;20025;-70
2023/04/29 04:02:36;;;;;;;20.20;14.82;;;;;;;10.77;77.23;101456.84;7392416;19;20022;-72
2023/04/29 04:05:03;;;;;;;19.30;14.25;;;;;;;10.82;77.01;101462.69;7394328;19;20015;-71
2023/04/29 04:07:30;;;;;;;19.65;14.13;;;;;;;10.75;77.37;101462.22;7395867;19;20022;-71
2023/04/29 04:09:57;;;;;;;20.20;15.45;;;;;;;10.72;77.64;101465.94;7394828;19;20357;-72
2023/04/29 04:12:24;;;;;;;23.20;15.50;;;;;;;10.67;77.41;101469.81;7393768;19;20126;-71
2023/04/29 04:14:51;;;;;;;21.65;15.55;;;;;;;10.77;77.21;101478.03;7395012;19;20083;-70
2023/04/29 04:17:18;;;;;;;19.95;15.48;;;;;;;10.79;77.12;101476.97;7394010;19;20023;-70
2023/04/29 04:19:45;;;;;;;21.33;14.90;;;;;;;10.81;76.89;101490.16;7394784;19;20014;-71
2023/04/29 04:22:12;;;;;;;21.27;15.93;;;;;;;10.73;77.10;101482.69;7394018;19;20022;-69
2023/04/29 04:24:40;;;;;;;19.83;14.43;;;;;;;10.73;77.05;101487.97;7394965;19;20018;-70
2023/04/29 04:27:07;;;;;;;23.55;16.38;;;;;;;10.68;76.98;101490.91;7395262;19;20022;-69
2023/04/29 04:29:33;;;;;;;23.50;16.27;;;;;;;10.65;77.29;101492.91;7394292;19;20014;-70
2023/04/29 04:32:01;;;;;;;24.48;16.67;;;;;;;10.62;77.59;101490.44;7391655;19;20018;-70
2023/04/29 04:34:28;;;;;;;22.63;15.77;;;;;;;10.66;77.50;101494.59;7391985;19;20011;-70
2023/04/29 04:36:55;;;;;;;20.73;15.32;;;;;;;10.75;77.23;101504.59;7393269;19;20051;-72
2023/04/29 04:39:22;;;;;;;20.00;15.65;;;;;;;10.76;76.90;101501.03;7394440;19;20027;-71
2023/04/29 04:41:49;;;;;;;22.58;15.55;;;;;;;10.70;77.20;101506.72;7393414;19;20018;-71
2023/04/29 04:44:16;;;;;;;21.02;16.40;;;;;;;10.72;76.88;101508.31;7391323;19;20090;-66
2023/04/29 04:46:43;;;;;;;25.40;16.75;;;;;;;10.71;77.17;101508.41;7392231;19;20026;-69
2023/04/29 04:49:10;;;;;;;20.98;16.52;;;;;;;10.78;76.96;101517.66;7394097;19;20051;-67
2023/04/29 04:51:37;;;;;;;21.15;16.42;;;;;;;10.74;76.99;101517.00;7394405;19;20018;-68
2023/04/29 04:54:04;;;;;;;23.55;16.95;;;;;;;10.74;76.86;101524.97;7392413;19;20047;-68
2023/04/29 04:56:31;;;;;;;23.45;16.92;;;;;;;10.77;76.83;101538.97;7393354;19;20019;-67
2023/04/29 04:58:58;;;;;;;23.98;17.40;;;;;;;10.74;77.05;101555.91;7393300;19;20048;-68
2023/04/29 05:01:25;;;;;;;23.50;16.35;;;;;;;10.77;76.91;101552.22;7393603;19;20045;-68
2023/04/29 05:03:52;;;;;;;25.02;17.80;;;;;;;10.80;76.75;101555.53;7392390;19;20375;-68
2023/04/29 05:06:19;;;;;;;25.05;17.38;;;;;;;10.82;76.61;101553.63;7393607;19;20015;-68
2023/04/29 05:08:46;;;;;;;21.73;16.67;;;;;;;10.80;76.74;101555.53;7390287;19;20519;-67
2023/04/29 05:11:17;;;;;;;24.88;18.08;;;;;;;10.85;76.33;101564.03;7391814;19;20122;-66
2023/04/29 05:13:44;;;;;;;25.80;19.15;;;;;;;10.82;76.19;101566.03;7391970;19;20507;-65
2023/04/29 05:16:11;;;;;;;22.77;17.38;;;;;;;10.85;76.09;101566.69;7392234;19;20018;-64
2023/04/29 05:18:38;;;;;;;24.45;17.77;;;;;;;10.86;76.12;101568.38;7393254;19;20019;-66
2023/04/29 05:21:05;;;;;;;24.63;17.55;;;;;;;10.91;76.05;101579.56;7391277;19;20094;-66
2023/04/29 05:23:32;;;;;;;22.27;16.83;;;;;;;10.89;76.21;101573.50;7391040;19;20024;-69
2023/04/29 05:25:59;;;;;;;22.23;16.55;;;;;;;10.90;76.04;101575.19;7391052;19;20030;-69
2023/04/29 05:28:26;;;;;;;22.73;17.33;;;;;;;10.95;76.06;101572.25;7393158;19;20018;-69
2023/04/29 05:30:54;;;;;;;26.05;17.08;;;;;;;10.96;75.79;101572.19;7393044;19;20018;-70
2023/04/29 05:33:21;;;;;;;24.45;17.40;;;;;;;10.95;76.03;101577.56;7391407;19;20033;-68
2023/04/29 05:35:48;;;;;;;23.77;17.65;;;;;;;10.98;75.74;101583.53;7392363;19;20509;-68
2023/04/29 05:38:15;;;;;;;23.58;17.10;;;;;;;11.07;75.44;101583.91;7392217;19;20019;-66
2023/04/29 05:40:42;;;;;;;22.80;16.27;;;;;;;11.18;75.02;101586.72;7392181;19;20011;-67
2023/04/29 05:43:10;;;;;;;25.55;17.60;;;;;;;11.17;75.15;101590.31;7388999;19;20039;-70
2023/04/29 05:45:37;;;;;;;22.10;17.05;;;;;;;11.14;75.18;101595.81;7392361;19;20018;-70
2023/04/29 05:48:04;;;;;;;21.92;16.10;;;;;;;11.14;75.36;101598.47;7392151;19;20019;-66
2023/04/29 05:50:31;;;;;;;23.73;17.90;;;;;;;11.19;75.43;101596.41;7392088;19;20034;-66
2023/04/29 05:52:58;;;;;;;23.33;16.52;;;;;;;11.20;75.12;101596.28;7391506;19;20097;-66
2023/04/29 05:55:25;;;;;;;20.63;16.02;;;;;;;11.18;75.18;101599.97;7391678;19;20453;-70
2023/04/29 05:57:52;;;;;;;22.98;17.25;;;;;;;11.19;75.00;101602.56;7392151;19;20018;-69
2023/04/29 06:00:19;;;;;;;24.92;16.25;;;;;;;11.18;75.41;101615.88;7391907;19;20035;-69
2023/04/29 06:02:46;;;;;;;21.65;16.65;;;;;;;11.17;75.29;101611.53;7390559;19;20031;-67
2023/04/29 06:05:25;;;;;;;23.33;16.75;;;;;;;11.12;75.25;101616.28;7391874;19;20014;-67
2023/04/29 06:07:52;;;;;;;23.92;16.60;;;;;;;11.17;75.30;101619.50;7392196;19;20019;-68
2023/04/29 06:10:19;;;;;;;23.95;17.88;;;;;;;11.15;75.13;101621.41;7391515;19;20015;-69
2023/04/29 06:12:49;;;;;;;22.85;16.95;;;;;;;11.13;75.51;101633.88;7391230;19;20015;-67
2023/04/29 06:15:16;;;;;;;25.58;16.75;;;;;;;11.20;75.32;101635.22;7389548;19;20022;-67
2023/04/29 06:17:43;;;;;;;23.50;16.60;;;;;;;11.28;75.08;101640.88;7391498;19;20015;-67
2023/04/29 06:20:11;;;;;;;23.58;16.83;;;;;;;11.33;74.95;101641.47;7390159;19;20078;-71
2023/04/29 06:22:38;;;;;;;23.10;16.80;;;;;;;11.31;75.19;101637.19;7389861;19;20110;-72
2023/04/29 06:25:05;;;;;;;22.70;16.90;;;;;;;11.30;75.09;101640.81;7390979;19;20590;-72
2023/04/29 06:27:32;;;;;;;25.17;17.60;;;;;;;11.29;75.08;101647.88;7391350;19;20039;-73
2023/04/29 06:29:59;;;;;;;23.52;16.40;;;;;;;11.37;75.02;101658.00;7391147;19;20014;-74
2023/04/29 06:32:26;;;;;;;22.73;16.10;;;;;;;11.40;74.92;101657.81;7390358;19;20019;-74
2023/04/29 06:34:53;;;;;;;24.75;16.80;;;;;;;11.39;74.61;101659.63;7391012;19;20028;-73
2023/04/29 06:37:20;;;;;;;22.55;15.43;;;;;;;11.37;74.68;101664.19;7390536;19;20021;-73
2023/04/29 06:39:47;;;;;;;22.67;15.20;;;;;;;11.39;74.95;101662.28;7388664;19;20048;-73
2023/04/29 06:42:14;;;;;;;21.05;15.63;;;;;;;11.41;74.83;101670.16;7390552;19;20015;-73
2023/04/29 06:44:41;;;;;;;23.58;15.57;;;;;;;11.41;74.54;101676.31;7391091;19;20022;-74
2023/04/29 06:47:08;;;;;;;23.88;15.73;;;;;;;11.44;74.52;101680.56;7390521;19;20036;-68
2023/04/29 06:49:35;;;;;;;22.67;16.17;;;;;;;11.47;74.61;101673.25;7390378;19;20086;-72
2023/04/29 06:52:02;;;;;;;21.40;15.18;;;;;;;11.43;74.50;101681.50;7390551;19;20022;-67
2023/04/29 06:54:29;;;;;;;22.60;15.60;;;;;;;11.48;74.74;101692.69;7388009;19;20035;-67
2023/04/29 06:56:57;;;;;;;21.85;15.07;;;;;;;11.52;74.69;101698.66;7390495;19;20023;-67
2023/04/29 06:59:24;;;;;;;24.55;15.32;;;;;;;11.49;74.69;101691.75;7390392;19;20014;-67
2023/04/29 07:01:51;;;;;;;22.35;15.25;;;;;;;11.53;74.71;101697.72;7390581;19;20035;-67
2023/04/29 07:04:18;;;;;;;21.67;15.05;;;;;;;11.64;74.03;101708.50;7386784;19;20025;-67
2023/04/29 07:06:45;;;;;;;20.73;14.70;;;;;;;11.69;74.23;101707.25;7388675;19;20015;-67
2023/04/29 07:09:13;;;;;;;20.25;13.73;;;;;;;11.64;73.73;101717.31;7387596;19;20278;-69
2023/04/29 07:11:40;;;;;;;23.35;14.60;;;;;;;11.78;73.66;101719.09;7390547;19;20015;-67
2023/04/29 07:14:08;;;;;;;20.42;13.23;;;;;;;11.83;73.48;101716.13;7387509;19;20014;-72
2023/04/29 07:16:35;;;;;;;22.17;13.65;;;;;;;11.89;73.14;101734.38;7389503;19;20362;-73
2023/04/29 07:19:02;;;;;;;22.27;13.55;;;;;;;11.87;72.96;101721.22;7389228;19;20014;-73
2023/04/29 07:21:30;;;;;;;21.15;12.73;;;;;;;11.91;72.91;101721.88;7389765;19;20519;-73
2023/04/29 07:23:59;;;;;;;19.35;12.10;;;;;;;11.92;73.11;101727.06;7387490;19;20031;-72
2023/04/29 07:26:26;;;;;;;20.20;12.30;;;;;;;11.98;72.69;101730.25;7389300;19;20018;-73
2023/04/29 07:28:53;;;;;;;21.10;12.23;;;;;;;11.99;72.29;101735.50;7388884;19;20019;-73
2023/04/29 07:31:21;;;;;;;16.38;11.60;;;;;;;12.04;71.55;101733.38;7391990;19;20014;-73
2023/04/29 07:33:48;;;;;;;18.83;11.73;;;;;;;12.14;71.22;101749.59;7393237;19;20034;-73
2023/04/29 07:36:15;;;;;;;17.33;10.98;;;;;;;12.30;70.42;101750.31;7396426;19;20015;-73
2023/04/29 07:38:42;;;;;;;22.55;11.70;;;;;;;12.35;70.23;101748.19;7394512;19;20022;-74
2023/04/29 07:41:09;;;;;;;16.58;11.10;;;;;;;12.38;70.04;101761.28;7397119;19;20366;-73
2023/04/29 07:43:36;;;;;;;16.75;10.63;;;;;;;12.45;69.34;101759.06;7394786;19;20559;-75
2023/04/29 07:46:05;;;;;;;18.13;11.07;;;;;;;12.43;69.25;101766.28;7396522;19;20022;-75
2023/04/29 07:48:38;;;;;;;19.40;11.43;;;;;;;12.50;68.63;101767.59;7394275;19;20018;-72
2023/04/29 07:51:05;;;;;;;16.83;10.68;;;;;;;12.39;68.36;101772.75;7395365;19;20499;-72
2023/04/29 07:53:32;;;;;;;16.23;10.15;;;;;;;12.41;68.37;101777.03;7394322;19;20357;-72
2023/04/29 07:56:04;;;;;;;15.73;10.23;;;;;;;12.56;68.10;101779.63;7394224;19;20039;-70
2023/04/29 07:58:32;;;;;;;15.63;10.07;;;;;;;12.57;67.95;101786.66;7394082;19;20022;-70
2023/04/29 08:01:10;;;;;;;18.83;10.48;;;;;;;12.54;67.66;101787.69;7395704;19;20029;-70
2023/04/29 08:03:38;;;;;;;17.33;10.77;;;;;;;12.54;67.51;101786.84;7392820;19;20086;-68
2023/04/29 08:06:07;;;;;;;15.88;10.07;;;;;;;12.58;67.31;101789.19;7395042;19;20018;-69
2023/04/29 08:08:35;;;;;;;22.02;10.45;;;;;;;12.65;67.27;101790.50;7395664;19;20370;-69
2023/04/29 08:11:02;;;;;;;15.13;10.30;;;;;;;12.69;66.61;101792.00;7395572;19;20015;-70
2023/04/29 08:13:29;;;;;;;16.15;9.90;;;;;;;12.71;65.82;101794.56;7394110;19;20033;-69
2023/04/29 08:15:56;;;;;;;18.52;9.98;;;;;;;12.73;66.00;101797.97;7393751;19;20018;-69
2023/04/29 08:18:23;;;;;;;16.88;9.57;;;;;;;12.80;65.70;101801.06;7393735;19;20031;-69
2023/04/29 08:20:50;;;;;;;17.45;10.05;;;;;;;12.87;65.25;101800.56;7393452;19;20018;-69
2023/04/29 08:23:17;;;;;;;14.70;8.82;;;;;;;12.94;64.60;101806.34;7393981;19;20014;-68
2023/04/29 08:25:44;;;;;;;15.88;9.65;;;;;;;12.95;64.21;101809.84;7394593;19;20022;-68
2023/04/29 08:28:11;;;;;;;16.73;9.50;;;;;;;12.96;63.98;101806.22;7395065;19;20019;-69
2023/04/29 08:30:39;;;;;;;15.13;9.13;;;;;;;12.93;63.58;101809.94;7394631;19;20021;-69
2023/04/29 08:33:07;;;;;;;14.90;9.38;;;;;;;12.93;63.20;101816.13;7394000;19;20022;-68
2023/04/29 08:35:40;;;;;;;14.60;8.85;;;;;;;13.04;63.15;101820.69;7394357;19;20371;-69
2023/04/29 08:38:08;;;;;;;14.00;9.00;;;;;;;13.06;63.94;101820.63;7393040;19;20014;-69
2023/04/29 08:40:42;;;;;;;14.45;8.88;;;;;;;13.00;63.51;101829.00;7393924;19;20483;-68
2023/04/29 08:43:09;;;;;;;15.02;8.10;;;;;;;12.99;62.55;101836.13;7390786;19;20018;-68
2023/04/29 08:45:36;;;;;;;15.45;9.25;;;;;;;13.00;62.37;101840.47;7394415;19;20498;-68
2023/04/29 08:48:05;;;;;;;15.05;8.60;;;;;;;13.12;60.77;101846.78;7394652;19;20413;-67
2023/04/29 08:50:39;;;;;;;13.48;8.35;;;;;;;13.21;60.90;101845.34;7393202;19;20032;-67
2023/04/29 08:53:06;;;;;;;14.48;8.18;;;;;;;13.25;61.09;101839.72;7393464;19;20039;-67
2023/04/29 08:55:44;;;;;;;16.23;8.30;;;;;;;13.27;59.92;101847.59;7393691;19;20020;-67
2023/04/29 08:58:14;;;;;;;15.00;8.13;;;;;;;13.13;60.76;101852.00;7394496;19;20051;-67
2023/04/29 09:00:42;;;;;;;15.30;8.40;;;;;;;13.14;61.45;101852.88;7393230;19;20014;-66
2023/04/29 09:03:41;;;;;;;14.48;8.88;;;;;;;13.22;61.28;101852.34;7391452;19;20018;-68
2023/04/29 09:06:09;;;;;;;15.20;9.10;;;;;;;13.19;62.04;101853.41;7391339;19;20015;-66
2023/04/29 09:08:38;;;;;;;14.65;8.98;;;;;;;13.32;62.14;101859.66;7390979;19;20512;-66
2023/04/29 09:11:09;;;;;;;13.45;8.85;;;;;;;13.46;61.59;101856.03;7391989;19;20033;-65
2023/04/29 09:13:36;;;;;;;17.92;9.32;;;;;;;13.45;61.16;101853.50;7389087;19;20033;-68
2023/04/29 09:16:04;;;;;;;16.98;9.25;;;;;;;13.37;61.26;101854.00;7388107;19;20037;-68
2023/04/29 09:18:42;;;;;;;13.88;8.55;;;;;;;13.38;60.23;101861.03;7393226;19;20028;-68
2023/04/29 09:21:20;;;;;;;13.27;8.48;;;;;;;13.33;59.36;101858.69;7393333;19;20349;-68
2023/04/29 09:23:50;;;;;;;16.20;8.57;;;;;;;13.33;59.15;101858.69;7390047;19;20502;-68
2023/04/29 09:26:18;;;;;;;13.95;8.35;;;;;;;13.44;59.49;101859.78;7392855;19;20030;-67
2023/04/29 09:28:46;;;;;;;15.52;9.18;;;;;;;13.61;58.82;101862.97;7393233;19;20034;-67
2023/04/29 09:31:13;;;;;;;14.90;8.52;;;;;;;13.60;58.46;101858.59;7390940;19;20014;-68
2023/04/29 09:33:55;;;;;;;16.45;8.05;;;;;;;13.60;58.15;101865.75;7391437;19;20035;-65
2023/04/29 09:36:45;;;;;;;13.55;8.23;;;;;;;13.62;57.75;101872.69;7392561;19;20023;-65
2023/04/29 09:39:17;;;;;;;14.27;8.32;;;;;;;13.59;58.12;101866.72;7392243;19;20015;-65
2023/04/29 09:41:53;;;;;;;12.07;7.57;;;;;;;13.61;57.88;101864.78;7392821;19;20023;-64
2023/04/29 09:44:28;;;;;;;16.00;8.93;;;;;;;13.73;57.78;101860.41;7390731;19;20018;-66
2023/04/29 09:47:05;;;;;;;14.60;8.05;;;;;;;13.77;57.74;101861.91;7392308;19;20023;-65
2023/04/29 09:49:37;;;;;;;13.00;7.47;;;;;;;13.83;57.69;101866.81;7391412;19;20296;-65
2023/04/29 09:52:09;;;;;;;14.57;7.78;;;;;;;14.02;57.13;101872.56;7392558;19;20282;-65
2023/04/29 09:54:39;;;;;;;13.02;8.20;;;;;;;14.29;56.69;101869.75;7388836;19;20030;-65
2023/04/29 09:57:09;;;;;;;13.93;7.93;;;;;;;14.30;56.39;101879.44;7390600;19;20035;-66
2023/04/29 09:59:38;;;;;;;13.05;7.93;;;;;;;14.28;56.18;101875.19;7391961;19;20487;-66
2023/04/29 10:02:26;;;;;;;15.20;7.82;;;;;;;14.52;55.22;101876.13;7390152;19;20519;-66
2023/04/29 10:04:57;;;;;;;14.63;7.80;;;;;;;14.43;56.19;101878.59;7389579;19;20014;-66
2023/04/29 10:07:27;;;;;;;13.10;6.40;;;;;;;14.25;56.95;101884.25;7392000;19;20014;-66
2023/04/29 10:09:54;;;;;;;11.88;7.38;;;;;;;14.20;57.03;101889.06;7391537;19;20026;-64
2023/04/29 10:12:25;;;;;;;37.47;9.10;;;;;;;14.15;56.45;101877.88;7391001;19;20026;-65
2023/04/29 10:15:32;;;;;;;13.43;7.10;;;;;;;14.14;56.67;101890.34;7391856;19;20014;-65
2023/04/29 10:18:14;;;;;;;15.57;7.10;;;;;;;14.20;55.52;101886.41;7388668;19;20018;-64
2023/04/29 10:20:46;;;;;;;12.18;7.65;;;;;;;14.31;55.35;101893.63;7391060;19;20074;-65
2023/04/29 10:23:15;;;;;;;12.73;7.47;;;;;;;14.45;54.41;101880.16;7390169;19;20483;-65
2023/04/29 10:25:43;;;;;;;12.32;6.80;;;;;;;14.43;54.34;101882.09;7391667;19;20039;-63
2023/04/29 10:28:16;;;;;;;12.43;7.65;;;;;;;14.38;55.09;101882.44;7391308;19;20031;-65
2023/04/29 10:30:44;;;;;;;10.77;6.20;;;;;;;14.30;55.35;101887.44;7390801;19;20096;-64
2023/04/29 10:33:15;;;;;;;11.35;6.38;;;;;;;14.30;54.86;101900.75;7389670;19;20014;-64
2023/04/29 10:35:43;;;;;;;10.32;6.28;;;;;;;14.20;54.15;101905.06;7391291;19;20035;-64
2023/04/29 10:38:20;;;;;;;14.52;6.20;;;;;;;14.24;52.29;101898.53;7389062;19;20022;-64
2023/04/29 10:40:53;;;;;;;11.88;6.35;;;;;;;14.22;52.05;101908.44;7390829;19;20047;-65
2023/04/29 10:43:23;;;;;;;12.95;6.15;;;;;;;14.26;52.01;101909.06;7389661;19;20024;-65
2023/04/29 10:46:16;;;;;;;12.00;6.20;;;;;;;14.39;51.61;101899.28;7390633;19;20019;-65
2023/04/29 10:48:46;;;;;;;9.90;5.93;;;;;;;14.57;51.96;101902.44;7390169;19;20021;-65
2023/04/29 10:51:30;;;;;;;9.93;6.15;;;;;;;14.52;51.17;101902.78;7391883;19;20022;-65
2023/04/29 10:54:06;;;;;;;11.30;6.28;;;;;;;14.48;51.92;101901.25;7389193;19;20014;-65
2023/04/29 10:56:50;;;;;;;10.07;5.88;;;;;;;14.46;50.77;101897.00;7390560;19;20022;-65
2023/04/29 10:59:32;;;;;;;10.18;5.60;;;;;;;14.44;50.79;101910.44;7390356;19;20078;-65
2023/04/29 11:02:02;;;;;;;12.85;6.18;;;;;;;14.40;51.15;101903.63;7389581;19;20025;-65
2023/04/29 11:04:30;;;;;;;9.18;5.55;;;;;;;14.33;51.35;101908.53;7386935;19;20015;-65
2023/04/29 11:07:01;;;;;;;11.73;5.70;;;;;;;14.36;51.56;101912.81;7396568;19;20023;-65
2023/04/29 11:09:34;;;;;;;9.65;6.20;;;;;;;14.38;50.76;101910.88;7398054;19;20015;-65
2023/04/29 11:12:02;;;;;;;10.90;5.68;;;;;;;14.41;50.56;101910.66;7397409;19;20139;-66
2023/04/29 11:14:31;;;;;;;9.60;5.40;;;;;;;14.39;50.37;101899.28;7392372;19;20010;-66
2023/04/29 11:17:03;;;;;;;10.75;5.85;;;;;;;14.36;50.79;101912.81;7395717;19;20048;-64
2023/04/29 11:19:56;;;;;;;11.15;5.38;;;;;;;14.39;50.50;101899.28;7396919;19;20627;-65
2023/04/29 11:22:25;;;;;;;9.07;5.78;;;;;;;14.41;49.79;101894.66;7395589;19;20019;-64